Time Latitude Longitude Accuracy (66% radius in meters) Altitude (meters) Speed (km/hour) Bearing (degrees) Battery (%) GPS flag
09:58:28 56.387536 43.737177 47 114.19999694824 0.25 63.900001525879 63 1 delete
09:57:55 56.387548 43.737254 137 116.19999694824 0.25 63.900001525879 63 1 delete
09:57:44 56.387446 43.737227 119 116 0.75 63.900001525879 63 1 delete
09:56:48 56.387632 43.737223 16 128.5 0 0 63 1 delete
09:56:41 56.387692 43.736964 18 133.60000610352 0.5 63.900001525879 63 1 delete
09:56:37 56.387622 43.736837 21 134.19999694824 1 42.200000762939 63 1 delete
09:56:27 56.387630 43.736553 16 138.69999694824 0.5 143.69999694824 63 1 delete
09:56:03 56.387858 43.736267 17 134.5 0 0 63 1 delete
09:55:53 56.387843 43.736099 13 135.60000610352 0.25 117.30000305176 63 1 delete
09:55:43 56.387832 43.735937 12 133.60000610352 0.5 117.30000305176 63 1 delete
09:55:25 56.387678 43.735730 14 143.19999694824 0.75 117.30000305176 63 1 delete
09:55:18 56.387740 43.735613 14 142.60000610352 0.5 80.900001525879 63 1 delete
09:55:06 56.387817 43.735296 18 144.30000305176 0.75 26.299999237061 63 1 delete
09:54:57 56.387966 43.735110 17 145.89999389648 0.25 26.299999237061 63 1 delete
09:54:53 56.388045 43.735007 18 145.39999389648 0.75 26.299999237061 63 1 delete
09:54:33 56.388063 43.734747 18 143.30000305176 0.25 255.89999389648 63 1 delete
09:54:14 56.387976 43.734809 26 152 0 0 63 1 delete
09:53:55 56.387881 43.734793 22 146.39999389648 0 0 63 1 delete
09:52:49 56.387961 43.734890 47 120.19999694824 0 0 63 1 delete
09:52:08 56.388100 43.734761 35 116.40000152588 0 0 63 1 delete
09:51:51 56.388189 43.734791 30 108.80000305176 0 0 63 1 delete
09:51:33 56.388289 43.734820 30 107.40000152588 0 0 63 1 delete
09:50:14 56.388156 43.734922 32 109.30000305176 0 0 63 1 delete
09:49:56 56.388239 43.734985 31 103.40000152588 0 0 63 1 delete
09:49:51 56.388346 43.734962 38 102.40000152588 0 0 63 1 delete
09:47:55 56.388438 43.734832 19 99.800003051758 2 225.80000305176 63 1 delete
09:47:48 56.388590 43.735035 18 99.599998474121 3 269.70001220703 63 1 delete
09:47:44 56.388579 43.735218 21 99.800003051758 4.5 282.39999389648 63 1 delete
09:47:42 56.388548 43.735390 20 101.69999694824 5 282.5 63 1 delete
09:47:40 56.388502 43.735682 21 101.40000152588 4.75 284.70001220703 63 1 delete
09:47:38 56.388454 43.735842 21 100.19999694824 4.25 305.10000610352 63 1 delete
09:47:36 56.388373 43.735952 21 101 4.25 322.10000610352 63 1 delete
09:47:34 56.388279 43.736024 22 101.19999694824 4.25 337.29998779297 63 1 delete
09:47:32 56.388171 43.736069 24 102.80000305176 3.5 331.29998779297 63 1 delete
09:47:30 56.388073 43.736097 23 104.80000305176 3 324.5 63 1 delete
09:47:27 56.387941 43.736163 24 106.19999694824 2.5 328.39999389648 63 1 delete
09:47:22 56.387826 43.736268 22 105.59999847412 5 343.5 63 1 delete
09:47:20 56.387630 43.736362 22 105.80000305176 4.75 349.39999389648 63 1 delete
09:47:17 56.387487 43.736366 21 104.80000305176 2.5495097637177 14.10000038147 63 1 delete
09:47:13 56.387384 43.736263 20 104.5 2.7950849533081 67.5 63 1 delete
09:47:10 56.387383 43.736098 20 104.19999694824 3.7831864356995 55.400001525879 63 1 delete
09:47:06 56.387320 43.735887 20 102.40000152588 5.0249376296997 53.900001525879 63 1 delete
09:47:04 56.387261 43.735732 21 100.30000305176 6.5192022323608 56.599998474121 63 1 delete
09:47:02 56.387206 43.735517 20 100.19999694824 6.25 43.099998474121 63 1 delete
09:47:00 56.387129 43.735352 19 100.19999694824 7.5 39.099998474121 63 1 delete
09:46:58 56.387022 43.735189 18 99.800003051758 7.75 39.400001525879 63 1 delete
09:46:56 56.386907 43.735013 18 99.599998474121 7.25 42.5 63 1 delete
09:46:54 56.386796 43.734819 18 99.800003051758 6.5 37.099998474121 63 1 delete
09:46:52 56.386667 43.734663 16 101.19999694824 5.25 36.700000762939 63 1 delete
09:46:49 56.386563 43.734512 15 101.19999694824 5 42.5 63 1 delete